createdAt,value
2024-04-21T00:01:15.019Z,100096.53
2024-04-21T00:03:41.808Z,100095.00
2024-04-21T00:06:08.278Z,100099.41
2024-04-21T00:08:34.751Z,100089.75
2024-04-21T00:11:01.456Z,100090.47
2024-04-21T00:13:28.190Z,100085.94
2024-04-21T00:15:54.906Z,100085.66
2024-04-21T00:18:21.433Z,100076.38
2024-04-21T00:20:47.963Z,100073.09
2024-04-21T00:23:14.608Z,100077.97
2024-04-21T00:25:41.088Z,100077.16
2024-04-21T00:28:07.916Z,100076.38
2024-04-21T00:30:34.529Z,100076.31
2024-04-21T00:33:01.120Z,100074.00
2024-04-21T00:35:27.602Z,100069.59
2024-04-21T00:37:54.106Z,100061.72
2024-04-21T00:40:24.081Z,100051.28
2024-04-21T00:43:00.357Z,100056.34
2024-04-21T00:45:31.928Z,100054.72
2024-04-21T00:48:04.001Z,100051.38
2024-04-21T00:50:32.129Z,100055.03
2024-04-21T00:52:58.632Z,100046.59
2024-04-21T00:55:25.430Z,100054.41
2024-04-21T00:57:52.473Z,100049.47
2024-04-21T01:00:19.919Z,100047.63
2024-04-21T01:02:46.609Z,100046.03
2024-04-21T01:05:13.289Z,100043.09
2024-04-21T01:07:39.839Z,100039.13
2024-04-21T01:10:06.655Z,100043.94
2024-04-21T01:12:39.181Z,100043.19
2024-04-21T01:15:05.920Z,100044.00
2024-04-21T01:17:32.619Z,100044.13
2024-04-21T01:19:59.224Z,100038.44
2024-04-21T01:22:25.841Z,100037.38
2024-04-21T01:24:52.361Z,100044.19
2024-04-21T01:27:19.012Z,100037.38
2024-04-21T01:29:45.506Z,100035.00
2024-04-21T01:32:21.730Z,100041.38
2024-04-21T01:34:48.720Z,100038.94
2024-04-21T01:37:16.782Z,100045.94
2024-04-21T01:39:43.554Z,100042.84
2024-04-21T01:42:10.056Z,100048.28
2024-04-21T01:44:36.827Z,100043.78
2024-04-21T01:47:03.345Z,100034.22
2024-04-21T01:49:29.841Z,100048.56
2024-04-21T01:51:56.577Z,100045.63
2024-04-21T01:54:23.027Z,100044.00
2024-04-21T01:56:49.488Z,100039.22
2024-04-21T01:59:16.120Z,100048.53
2024-04-21T02:01:42.649Z,100042.13
2024-04-21T02:04:09.232Z,100049.28
2024-04-21T02:06:38.910Z,100049.41
2024-04-21T02:09:05.367Z,100042.13
2024-04-21T02:11:31.887Z,100042.03
2024-04-21T02:13:58.496Z,100045.88
2024-04-21T02:16:24.970Z,100049.00
2024-04-21T02:18:51.668Z,100046.25
2024-04-21T02:21:18.257Z,100048.94
2024-04-21T02:23:50.818Z,100045.69
2024-04-21T02:26:17.424Z,100043.84
2024-04-21T02:28:44.210Z,100046.09
2024-04-21T02:31:11.070Z,100052.03
2024-04-21T02:33:37.776Z,100053.56
2024-04-21T02:36:04.462Z,100047.44
2024-04-21T02:38:32.612Z,100053.03
2024-04-21T02:40:59.323Z,100053.75
2024-04-21T02:43:25.837Z,100057.56
2024-04-21T02:45:52.583Z,100065.63
2024-04-21T02:48:19.088Z,100065.56
2024-04-21T02:50:46.429Z,100069.63
2024-04-21T02:53:13.126Z,100065.72
2024-04-21T02:55:43.661Z,100064.34
2024-04-21T02:58:10.236Z,100072.94
2024-04-21T03:00:40.487Z,100061.72
2024-04-21T03:03:07.312Z,100062.44
2024-04-21T03:05:33.918Z,100065.53
2024-04-21T03:08:00.576Z,100061.69
2024-04-21T03:10:27.150Z,100060.81
2024-04-21T03:12:53.767Z,100064.41
2024-04-21T03:15:20.461Z,100063.06
2024-04-21T03:17:47.060Z,100074.41
2024-04-21T03:20:13.548Z,100059.75
2024-04-21T03:22:40.220Z,100073.78
2024-04-21T03:25:06.968Z,100063.16
2024-04-21T03:27:33.487Z,100066.97
2024-04-21T03:30:00.165Z,100070.28
2024-04-21T03:32:26.842Z,100068.81
2024-04-21T03:34:54.258Z,100071.25
2024-04-21T03:37:20.953Z,100066.97
2024-04-21T03:39:47.433Z,100062.13
2024-04-21T03:42:13.969Z,100063.72
2024-04-21T03:44:40.576Z,100068.03
2024-04-21T03:47:07.059Z,100073.34
2024-04-21T03:49:33.518Z,100078.09
2024-04-21T03:52:00.325Z,100082.78
2024-04-21T03:54:26.843Z,100084.22
2024-04-21T03:56:53.306Z,100082.69
2024-04-21T03:59:19.927Z,100085.06
2024-04-21T04:01:46.746Z,100091.50
2024-04-21T04:04:13.265Z,100088.06
2024-04-21T04:06:39.915Z,100086.97
2024-04-21T04:09:06.505Z,100095.50
2024-04-21T04:11:32.979Z,100096.84
2024-04-21T04:13:59.594Z,100093.91
2024-04-21T04:16:26.108Z,100099.97
2024-04-21T04:18:52.600Z,100106.69
2024-04-21T04:21:19.238Z,100109.34
2024-04-21T04:23:45.711Z,100115.91
2024-04-21T04:26:12.248Z,100113.28
2024-04-21T04:28:39.811Z,100115.94
2024-04-21T04:31:06.376Z,100113.34
2024-04-21T04:33:33.098Z,100120.56
2024-04-21T04:35:59.848Z,100132.00
2024-04-21T04:38:26.294Z,100129.19
2024-04-21T04:40:52.742Z,100143.72
2024-04-21T04:43:19.569Z,100137.13
2024-04-21T04:45:46.196Z,100139.56
2024-04-21T04:48:12.714Z,100144.28
2024-04-21T04:50:39.334Z,100146.91
2024-04-21T04:53:05.936Z,100155.78
2024-04-21T04:55:32.432Z,100160.88
2024-04-21T04:57:59.180Z,100167.06
2024-04-21T05:00:25.696Z,100160.09
2024-04-21T05:02:52.182Z,100168.84
2024-04-21T05:05:18.971Z,100174.28
2024-04-21T05:07:45.422Z,100173.38
2024-04-21T05:10:11.924Z,100176.16
2024-04-21T05:12:39.259Z,100186.72
2024-04-21T05:15:06.330Z,100192.91
2024-04-21T05:17:32.824Z,100192.16
2024-04-21T05:19:59.514Z,100193.03
2024-04-21T05:22:26.052Z,100199.88
2024-04-21T05:24:52.548Z,100205.66
2024-04-21T05:27:19.304Z,100197.88
2024-04-21T05:29:45.792Z,100200.28
2024-04-21T05:32:12.264Z,100195.69
2024-04-21T05:34:38.984Z,100207.28
2024-04-21T05:37:05.463Z,100208.94
2024-04-21T05:39:31.957Z,100199.47
2024-04-21T05:41:58.681Z,100201.97
2024-04-21T05:44:25.153Z,100209.78
2024-04-21T05:46:51.589Z,100202.75
2024-04-21T05:49:21.042Z,100207.13
2024-04-21T05:51:47.696Z,100212.31
2024-04-21T05:54:14.169Z,100213.19
2024-04-21T05:56:40.768Z,100224.59
2024-04-21T05:59:07.245Z,100227.88
2024-04-21T06:01:34.299Z,100233.16
2024-04-21T06:04:01.304Z,100232.88
2024-04-21T06:06:27.833Z,100240.75
2024-04-21T06:08:54.292Z,100230.25
2024-04-21T06:11:20.924Z,100233.81
2024-04-21T06:13:47.398Z,100238.41
2024-04-21T06:16:14.069Z,100242.13
2024-04-21T06:18:42.714Z,100246.38
2024-04-21T06:21:10.899Z,100250.00
2024-04-21T06:23:37.472Z,100252.69
2024-04-21T06:26:04.233Z,100247.72
2024-04-21T06:28:32.573Z,100256.28
2024-04-21T06:30:59.092Z,100250.28
2024-04-21T06:33:25.596Z,100266.69
2024-04-21T06:35:52.243Z,100253.91
2024-04-21T06:38:18.703Z,100257.81
2024-04-21T06:40:45.504Z,100259.19
2024-04-21T06:43:12.036Z,100266.16
2024-04-21T06:45:42.809Z,100255.22
2024-04-21T06:48:09.528Z,100269.16
2024-04-21T06:50:36.560Z,100272.16
2024-04-21T06:53:03.201Z,100280.56
2024-04-21T06:55:29.716Z,100275.94
2024-04-21T06:57:56.309Z,100277.03
2024-04-21T07:00:22.911Z,100278.06
2024-04-21T07:02:49.372Z,100285.41
2024-04-21T07:05:16.005Z,100284.78
2024-04-21T07:07:42.507Z,100302.22
2024-04-21T07:10:09.021Z,100300.38
2024-04-21T07:12:35.630Z,100295.53
2024-04-21T07:15:02.167Z,100294.13
2024-04-21T07:17:28.769Z,100298.38
2024-04-21T07:19:55.408Z,100300.63
2024-04-21T07:22:21.933Z,100301.13
2024-04-21T07:24:48.451Z,100302.38
2024-04-21T07:27:14.916Z,100304.59
2024-04-21T07:29:42.145Z,100308.63
2024-04-21T07:32:08.772Z,100318.16
2024-04-21T07:34:35.338Z,100314.31
2024-04-21T07:37:03.922Z,100308.41
2024-04-21T07:39:30.688Z,100312.88
2024-04-21T07:41:57.303Z,100318.56
2024-04-21T07:44:23.905Z,100327.19
2024-04-21T07:46:50.375Z,100328.91
2024-04-21T07:49:16.894Z,100326.81
2024-04-21T07:51:43.587Z,100320.28
2024-04-21T07:54:10.000Z,100325.78
2024-04-21T07:56:36.584Z,100330.72
2024-04-21T07:59:03.064Z,100335.97
2024-04-21T08:01:29.602Z,100334.97
2024-04-21T08:03:56.518Z,100336.47
2024-04-21T08:06:23.685Z,100333.00
2024-04-21T08:08:55.664Z,100333.56
2024-04-21T08:11:27.854Z,100342.50
2024-04-21T08:13:54.493Z,100345.28
2024-04-21T08:16:20.983Z,100339.19
2024-04-21T08:18:47.606Z,100339.31
2024-04-21T08:21:14.254Z,100345.72
2024-04-21T08:23:40.723Z,100349.00
2024-04-21T08:26:07.320Z,100358.06
2024-04-21T08:28:33.850Z,100358.78
2024-04-21T08:31:00.458Z,100365.16
2024-04-21T08:33:27.689Z,100371.38
2024-04-21T08:35:55.337Z,100371.50
2024-04-21T08:38:22.482Z,100359.72
2024-04-21T08:40:49.844Z,100369.03
2024-04-21T08:43:22.434Z,100363.47
2024-04-21T08:45:50.772Z,100370.09
2024-04-21T08:48:18.489Z,100361.19
2024-04-21T08:50:46.717Z,100381.22
2024-04-21T08:53:13.598Z,100381.75
2024-04-21T08:55:41.687Z,100374.97
2024-04-21T08:58:09.309Z,100381.31
2024-04-21T09:00:35.908Z,100378.72
2024-04-21T09:03:02.598Z,100384.69
2024-04-21T09:05:29.350Z,100388.94
2024-04-21T09:07:57.552Z,100387.63
2024-04-21T09:10:24.267Z,100390.09
2024-04-21T09:12:51.386Z,100384.16
2024-04-21T09:15:18.278Z,100398.38
2024-04-21T09:17:45.076Z,100398.75
2024-04-21T09:20:11.677Z,100400.72
2024-04-21T09:22:38.814Z,100396.53
2024-04-21T09:25:05.803Z,100386.03
2024-04-21T09:27:32.916Z,100386.28
2024-04-21T09:29:59.433Z,100376.22
2024-04-21T09:32:29.608Z,100380.88
2024-04-21T09:34:58.754Z,100385.19
2024-04-21T09:37:26.400Z,100393.59
2024-04-21T09:39:53.249Z,100394.69
2024-04-21T09:42:20.658Z,100391.97
2024-04-21T09:44:50.522Z,100393.81
2024-04-21T09:47:17.840Z,100393.09
2024-04-21T09:49:44.714Z,100387.63
2024-04-21T09:52:12.835Z,100369.59
2024-04-21T09:54:39.798Z,100387.75
2024-04-21T09:57:13.294Z,100398.34
2024-04-21T09:59:40.096Z,100400.59
2024-04-21T10:02:12.353Z,100396.47
2024-04-21T10:04:41.595Z,100393.59
2024-04-21T10:07:08.166Z,100395.34
2024-04-21T10:09:38.107Z,100402.31
2024-04-21T10:12:04.936Z,100410.25
2024-04-21T10:14:31.724Z,100415.44
2024-04-21T10:16:58.903Z,100422.72
2024-04-21T10:19:27.095Z,100425.94
2024-04-21T10:21:54.135Z,100430.09
2024-04-21T10:24:21.231Z,100428.06
2024-04-21T10:26:47.907Z,100431.56
2024-04-21T10:29:14.357Z,100425.91
2024-04-21T10:31:40.821Z,100432.31
2024-04-21T10:34:11.130Z,100433.03
2024-04-21T10:36:47.509Z,100433.34
2024-04-21T10:39:24.237Z,100432.88
2024-04-21T10:41:52.342Z,100443.69
2024-04-21T10:44:18.896Z,100452.13
2024-04-21T10:46:45.563Z,100450.47
2024-04-21T10:49:12.134Z,100451.63
2024-04-21T10:51:38.693Z,100451.28
2024-04-21T10:54:08.702Z,100461.00
2024-04-21T10:56:37.967Z,100466.44
2024-04-21T10:59:06.663Z,100467.69
2024-04-21T11:01:33.287Z,100466.78
2024-04-21T11:04:02.291Z,100469.19
2024-04-21T11:06:28.848Z,100478.50
2024-04-21T11:08:55.768Z,100475.81
2024-04-21T11:11:22.571Z,100479.19
2024-04-21T11:13:52.259Z,100468.38
2024-04-21T11:16:20.327Z,100478.50
2024-04-21T11:18:47.147Z,100480.63
2024-04-21T11:21:13.637Z,100480.69
2024-04-21T11:23:40.611Z,100486.06
2024-04-21T11:26:11.228Z,100481.38
2024-04-21T11:28:37.702Z,100479.38
2024-04-21T11:31:06.429Z,100478.13
2024-04-21T11:33:34.487Z,100479.94
2024-04-21T11:36:02.429Z,100492.22
2024-04-21T11:38:30.167Z,100492.31
2024-04-21T11:40:57.007Z,100481.75
2024-04-21T11:43:23.527Z,100499.31
2024-04-21T11:45:50.310Z,100501.38
2024-04-21T11:48:16.951Z,100503.78
2024-04-21T11:50:43.722Z,100512.06
2024-04-21T11:53:10.192Z,100512.63
2024-04-21T11:55:36.975Z,100510.72
2024-04-21T11:58:03.702Z,100513.63
2024-04-21T12:00:30.463Z,100523.75
2024-04-21T12:02:57.045Z,100518.03
2024-04-21T12:05:23.674Z,100520.16
2024-04-21T12:07:50.164Z,100523.06
2024-04-21T12:10:16.814Z,100517.59
2024-04-21T12:12:44.006Z,100522.88
2024-04-21T12:15:10.738Z,100515.13
2024-04-21T12:17:37.272Z,100526.97
2024-04-21T12:20:03.978Z,100529.94
2024-04-21T12:22:30.526Z,100534.03
2024-04-21T12:24:57.276Z,100533.94
2024-04-21T12:27:23.841Z,100529.19
2024-04-21T12:29:50.293Z,100525.00
2024-04-21T12:32:16.965Z,100535.50
2024-04-21T12:34:44.051Z,100518.66
2024-04-21T12:37:10.532Z,100518.78
2024-04-21T12:39:37.211Z,100528.84
2024-04-21T12:42:04.116Z,100531.31
2024-04-21T12:44:30.756Z,100533.06
2024-04-21T12:46:57.594Z,100522.88
2024-04-21T12:49:24.226Z,100531.19
2024-04-21T12:51:51.248Z,100526.75
2024-04-21T12:54:20.727Z,100532.41
2024-04-21T12:56:47.946Z,100529.31
2024-04-21T12:59:14.555Z,100509.84
2024-04-21T13:01:41.123Z,100517.94
2024-04-21T13:04:09.385Z,100519.16
2024-04-21T13:06:35.989Z,100526.13
2024-04-21T13:09:02.572Z,100524.34
2024-04-21T13:11:29.083Z,100531.13
2024-04-21T13:13:55.698Z,100527.59
2024-04-21T13:16:22.288Z,100523.63
2024-04-21T13:18:49.015Z,100523.16
2024-04-21T13:21:15.594Z,100515.06
2024-04-21T13:23:43.435Z,100513.53
2024-04-21T13:26:10.080Z,100504.84
2024-04-21T13:28:36.678Z,100496.72
2024-04-21T13:31:03.357Z,100497.34
2024-04-21T13:33:30.136Z,100497.94
2024-04-21T13:35:56.883Z,100504.47
2024-04-21T13:38:23.351Z,100512.00
2024-04-21T13:40:50.013Z,100515.59
2024-04-21T13:43:16.637Z,100507.44
2024-04-21T13:45:43.358Z,100497.78
2024-04-21T13:48:10.729Z,100499.97
2024-04-21T13:50:37.271Z,100493.72
2024-04-21T13:53:04.009Z,100504.09
2024-04-21T13:55:30.572Z,100508.78
2024-04-21T13:57:57.272Z,100511.03
2024-04-21T14:00:24.989Z,100512.28
2024-04-21T14:02:51.507Z,100504.94
2024-04-21T14:05:18.110Z,100507.56
2024-04-21T14:07:44.624Z,100509.28
2024-04-21T14:10:11.150Z,100504.63
2024-04-21T14:12:37.709Z,100512.31
2024-04-21T14:15:04.452Z,100515.25
2024-04-21T14:17:31.089Z,100525.97
2024-04-21T14:19:57.647Z,100514.88
2024-04-21T14:22:24.443Z,100510.91
2024-04-21T14:24:51.049Z,100514.44
2024-04-21T14:27:17.617Z,100511.06
2024-04-21T14:29:46.679Z,100502.09
2024-04-21T14:32:15.574Z,100518.38
2024-04-21T14:34:42.084Z,100512.91
2024-04-21T14:37:08.787Z,100516.16
2024-04-21T14:39:35.289Z,100520.00
2024-04-21T14:42:03.406Z,100511.28
2024-04-21T14:44:30.079Z,100515.50
2024-04-21T14:46:57.440Z,100513.72
2024-04-21T14:49:24.098Z,100509.53
2024-04-21T14:51:50.822Z,100527.78
2024-04-21T14:54:17.348Z,100525.50
2024-04-21T14:56:43.952Z,100526.72
2024-04-21T14:59:11.175Z,100515.97
2024-04-21T15:01:38.440Z,100506.75
2024-04-21T15:04:05.060Z,100507.84
2024-04-21T15:06:31.752Z,100503.19
2024-04-21T15:09:01.486Z,100497.63
2024-04-21T15:11:28.380Z,100501.25
2024-04-21T15:13:58.254Z,100499.31
2024-04-21T15:16:25.371Z,100516.09
2024-04-21T15:18:51.857Z,100506.44
2024-04-21T15:21:18.464Z,100509.56
2024-04-21T15:23:44.914Z,100521.50
2024-04-21T15:26:11.561Z,100512.00
2024-04-21T15:28:38.281Z,100521.41
2024-04-21T15:31:07.073Z,100526.91
2024-04-21T15:33:34.082Z,100522.31
2024-04-21T15:36:00.994Z,100524.06
2024-04-21T15:38:27.487Z,100528.63
2024-04-21T15:40:53.953Z,100521.22
2024-04-21T15:43:20.611Z,100516.38
2024-04-21T15:45:47.078Z,100525.97
2024-04-21T15:48:13.547Z,100509.09
2024-04-21T15:50:40.286Z,100515.97
2024-04-21T15:53:06.750Z,100527.09
2024-04-21T15:55:33.696Z,100523.00
2024-04-21T15:58:00.565Z,100527.34
2024-04-21T16:00:27.053Z,100542.91
2024-04-21T16:02:53.620Z,100546.56
2024-04-21T16:05:20.293Z,100545.94
2024-04-21T16:07:46.794Z,100539.41
2024-04-21T16:10:13.302Z,100546.78
2024-04-21T16:12:41.430Z,100535.16
2024-04-21T16:15:09.500Z,100536.88
2024-04-21T16:17:36.178Z,100523.03
2024-04-21T16:20:02.958Z,100520.13
2024-04-21T16:22:29.468Z,100508.06
2024-04-21T16:24:55.994Z,100506.94
2024-04-21T16:27:23.019Z,100520.84
2024-04-21T16:29:49.760Z,100519.63
2024-04-21T16:32:16.458Z,100518.59
2024-04-21T16:34:43.624Z,100514.25
2024-04-21T16:37:12.715Z,100509.88
2024-04-21T16:39:39.602Z,100510.78
2024-04-21T16:42:06.813Z,100506.31
2024-04-21T16:44:33.663Z,100507.09
2024-04-21T16:47:00.536Z,100505.22
2024-04-21T16:49:31.034Z,100497.63
2024-04-21T16:52:01.418Z,100509.25
2024-04-21T16:54:28.889Z,100511.28
2024-04-21T16:57:06.969Z,100510.88
2024-04-21T16:59:41.413Z,100515.22
2024-04-21T17:02:08.473Z,100524.00
2024-04-21T17:04:36.643Z,100520.63
2024-04-21T17:07:04.727Z,100534.56
2024-04-21T17:09:32.003Z,100514.75
2024-04-21T17:12:00.064Z,100527.00
2024-04-21T17:14:26.873Z,100536.31
2024-04-21T17:16:54.512Z,100541.78
2024-04-21T17:19:25.144Z,100548.44
2024-04-21T17:21:51.799Z,100554.31
2024-04-21T17:24:18.757Z,100559.63
2024-04-21T17:26:45.695Z,100573.88
2024-04-21T17:29:12.491Z,100574.41
2024-04-21T17:31:39.503Z,100578.59
2024-04-21T17:34:06.287Z,100587.13
2024-04-21T17:36:32.884Z,100588.09
2024-04-21T17:39:02.544Z,100591.03
2024-04-21T17:41:29.022Z,100589.31
2024-04-21T17:43:55.504Z,100596.09
2024-04-21T17:46:22.397Z,100594.25
2024-04-21T17:48:49.208Z,100599.88
2024-04-21T17:51:16.608Z,100600.84
2024-04-21T17:53:43.261Z,100608.94
2024-04-21T17:56:09.994Z,100608.09
2024-04-21T17:58:36.757Z,100610.56
2024-04-21T18:01:07.397Z,100615.97
2024-04-21T18:03:33.975Z,100608.84
2024-04-21T18:06:07.218Z,100609.34
2024-04-21T18:08:34.108Z,100621.69
2024-04-21T18:11:00.697Z,100621.38
2024-04-21T18:13:27.240Z,100622.09
2024-04-21T18:15:54.026Z,100621.44
2024-04-21T18:18:20.499Z,100626.28
2024-04-21T18:20:47.009Z,100628.94
2024-04-21T18:23:13.779Z,100630.81
2024-04-21T18:25:40.454Z,100631.66
2024-04-21T18:28:07.193Z,100634.63
2024-04-21T18:30:36.618Z,100632.88
2024-04-21T18:33:03.324Z,100632.28
2024-04-21T18:35:30.219Z,100640.34
2024-04-21T18:37:58.310Z,100642.28
2024-04-21T18:40:24.944Z,100649.38
2024-04-21T18:42:51.583Z,100642.50
2024-04-21T18:45:18.077Z,100645.69
2024-04-21T18:47:44.756Z,100642.41
2024-04-21T18:50:11.331Z,100646.00
2024-04-21T18:52:38.047Z,100648.84
2024-04-21T18:55:05.728Z,100648.06
2024-04-21T18:57:32.489Z,100656.16
2024-04-21T18:59:59.072Z,100648.72
2024-04-21T19:02:25.770Z,100657.88
2024-04-21T19:04:52.254Z,100658.06
2024-04-21T19:07:18.766Z,100662.28
2024-04-21T19:09:45.712Z,100662.69
2024-04-21T19:12:12.645Z,100663.78
2024-04-21T19:14:39.340Z,100665.75
2024-04-21T19:17:07.689Z,100656.94
2024-04-21T19:19:35.088Z,100663.09
2024-04-21T19:22:01.783Z,100671.28
2024-04-21T19:24:28.464Z,100670.47
2024-04-21T19:26:55.043Z,100667.66
2024-04-21T19:29:21.553Z,100667.84
2024-04-21T19:31:48.229Z,100670.66
2024-04-21T19:34:14.747Z,100665.81
2024-04-21T19:36:41.222Z,100674.94
2024-04-21T19:39:07.826Z,100668.19
2024-04-21T19:41:34.472Z,100667.63
2024-04-21T19:44:01.406Z,100669.75
2024-04-21T19:46:27.960Z,100669.88
2024-04-21T19:48:54.470Z,100665.13
2024-04-21T19:51:21.215Z,100666.25
2024-04-21T19:53:47.969Z,100663.66
2024-04-21T19:56:15.576Z,100668.94
2024-04-21T19:58:42.225Z,100671.53
2024-04-21T20:01:09.006Z,100670.47
2024-04-21T20:03:35.718Z,100674.72
2024-04-21T20:06:04.197Z,100675.69
2024-04-21T20:08:30.882Z,100677.13
2024-04-21T20:10:57.368Z,100681.16
2024-04-21T20:13:23.980Z,100684.94
2024-04-21T20:16:12.742Z,100685.91
2024-04-21T20:18:44.952Z,100687.81
2024-04-21T20:21:11.793Z,100680.81
2024-04-21T20:23:38.382Z,100688.81
2024-04-21T20:26:07.504Z,100687.44
2024-04-21T20:28:34.072Z,100694.78
2024-04-21T20:31:01.031Z,100680.97
2024-04-21T20:33:27.616Z,100687.13
2024-04-21T20:35:54.133Z,100683.59
2024-04-21T20:38:20.714Z,100689.81
2024-04-21T20:40:47.957Z,100689.91
2024-04-21T20:43:14.693Z,100693.50
2024-04-21T20:45:41.161Z,100687.47
2024-04-21T20:48:07.763Z,100692.09
2024-04-21T20:50:35.000Z,100698.25
2024-04-21T20:53:01.720Z,100699.19
2024-04-21T20:55:28.429Z,100703.19
2024-04-21T20:57:55.100Z,100709.19
2024-04-21T21:00:21.631Z,100710.91
2024-04-21T21:02:48.335Z,100705.91
2024-04-21T21:05:15.084Z,100717.28
2024-04-21T21:07:41.619Z,100722.09
2024-04-21T21:10:08.244Z,100732.84
2024-04-21T21:12:34.784Z,100731.00
2024-04-21T21:15:01.959Z,100734.59
2024-04-21T21:17:29.846Z,100732.75
2024-04-21T21:19:56.346Z,100726.00
2024-04-21T21:22:23.034Z,100737.25
2024-04-21T21:24:49.492Z,100733.03
2024-04-21T21:27:16.157Z,100735.72
2024-04-21T21:29:43.934Z,100734.31
2024-04-21T21:32:10.707Z,100737.59
2024-04-21T21:34:37.421Z,100741.09
2024-04-21T21:37:04.029Z,100741.44
2024-04-21T21:39:30.649Z,100745.06
2024-04-21T21:41:57.282Z,100732.69
2024-04-21T21:44:26.157Z,100735.72
2024-04-21T21:46:52.736Z,100742.13
2024-04-21T21:49:19.246Z,100742.84
2024-04-21T21:51:46.039Z,100738.56
2024-04-21T21:54:12.494Z,100733.97
2024-04-21T21:56:38.972Z,100752.44
2024-04-21T21:59:05.636Z,100750.75
2024-04-21T22:01:32.214Z,100748.09
2024-04-21T22:03:59.012Z,100746.28
2024-04-21T22:06:26.517Z,100747.56
2024-04-21T22:08:53.135Z,100747.47
2024-04-21T22:11:19.672Z,100748.34
2024-04-21T22:13:49.235Z,100744.38
2024-04-21T22:16:16.127Z,100756.13
2024-04-21T22:18:42.698Z,100750.13
2024-04-21T22:21:09.321Z,100752.13
2024-04-21T22:23:35.791Z,100754.94
2024-04-21T22:26:02.395Z,100752.44
2024-04-21T22:28:28.895Z,100753.44
2024-04-21T22:30:55.360Z,100759.84
2024-04-21T22:33:22.114Z,100758.06
2024-04-21T22:35:55.298Z,100767.00
2024-04-21T22:38:21.953Z,100773.28
2024-04-21T22:41:04.585Z,100767.13
2024-04-21T22:43:31.792Z,100764.66
2024-04-21T22:46:00.562Z,100765.41
2024-04-21T22:48:27.136Z,100755.03
2024-04-21T22:50:54.218Z,100752.50
2024-04-21T22:53:21.378Z,100755.06
2024-04-21T22:55:48.148Z,100755.03
2024-04-21T22:58:14.711Z,100748.22
2024-04-21T23:00:41.704Z,100766.56
2024-04-21T23:03:08.539Z,100770.19
2024-04-21T23:05:37.258Z,100769.53
2024-04-21T23:08:04.260Z,100769.56
2024-04-21T23:10:32.943Z,100770.41
2024-04-21T23:13:06.416Z,100771.19
2024-04-21T23:15:33.250Z,100767.72
2024-04-21T23:17:59.777Z,100763.16
2024-04-21T23:20:26.413Z,100758.66
2024-04-21T23:22:52.882Z,100753.59
2024-04-21T23:25:19.564Z,100750.84
2024-04-21T23:27:46.057Z,100749.03
2024-04-21T23:30:12.565Z,100742.13
2024-04-21T23:32:39.243Z,100746.72
2024-04-21T23:35:05.781Z,100746.91
2024-04-21T23:37:32.442Z,100747.09
2024-04-21T23:39:58.923Z,100748.88
2024-04-21T23:42:25.551Z,100748.84
2024-04-21T23:44:52.145Z,100736.66
2024-04-21T23:47:18.636Z,100736.66
2024-04-21T23:49:45.299Z,100735.75
2024-04-21T23:52:11.756Z,100728.78
2024-04-21T23:54:38.220Z,100730.59
2024-04-21T23:57:04.991Z,100734.97
2024-04-21T23:59:32.107Z,100725.47
